ARA228 DNMM-GOBD
Flight info
| Callsign | ARA228 |
|---|---|
| Flight time | N/A |
| Altitude | 34000 |
| Route | POLTO1Q POLTO UL433 ACC UB600 AD UR979 ERIDI ERIDI1A |
| Aircraft | B737/M-SDE2E3FGHIRWXY/LB1 |
Departure
| Time | 2026-05-07 11:19 |
|---|---|
| Airport | Murtala Muhammed International Airport (DNMM) |
Arrival
| Time | N/A |
|---|---|
| Airport | Blaise Diagne International Airport (GOBD) |
| Time | Latitude | Longitude | Altitude | Speed | Heading |
|---|---|---|---|---|---|
| 2026-05-07 10:54 | 6.58004 | 3.31913 | 93 ft | 0 kts | 66° |
| 2026-05-07 11:14 | 6.57999 | 3.31903 | 94 ft | 2 kts | 66° |
| 2026-05-07 11:14 | 6.57993 | 3.31888 | 93 ft | 2 kts | 66° |
| 2026-05-07 11:14 | 6.57986 | 3.31873 | 92 ft | 2 kts | 65° |
| 2026-05-07 11:15 | 6.57978 | 3.31859 | 92 ft | 2 kts | 32° |
| 2026-05-07 11:15 | 6.57970 | 3.31855 | 94 ft | 2 kts | 352° |
| 2026-05-07 11:15 | 6.57963 | 3.31856 | 93 ft | 0 kts | 340° |
| 2026-05-07 11:16 | 6.57964 | 3.31856 | 93 ft | 2 kts | 339° |
| 2026-05-07 11:17 | 6.58027 | 3.31805 | 93 ft | 18 kts | 322° |
| 2026-05-07 11:17 | 6.58112 | 3.31722 | 87 ft | 19 kts | 259° |
| 2026-05-07 11:17 | 6.58065 | 3.31573 | 65 ft | 26 kts | 277° |
| 2026-05-07 11:17 | 6.58215 | 3.31525 | 64 ft | 24 kts | 359° |
| 2026-05-07 11:18 | 6.58377 | 3.31523 | 65 ft | 23 kts | 0° |
| 2026-05-07 11:18 | 6.58543 | 3.31521 | 69 ft | 26 kts | 359° |
| 2026-05-07 11:18 | 6.58725 | 3.31519 | 68 ft | 26 kts | 359° |
| 2026-05-07 11:18 | 6.58806 | 3.31398 | 69 ft | 24 kts | 259° |
| 2026-05-07 11:19 | 6.58658 | 3.31317 | 70 ft | 42 kts | 182° |
| 2026-05-07 11:19 | 6.58108 | 3.31319 | 60 ft | 112 kts | 179° |
| 2026-05-07 11:19 | 6.57146 | 3.31329 | 77 ft | 161 kts | 181° |
| 2026-05-07 11:19 | 6.56029 | 3.31358 | 740 ft | 157 kts | 182° |
| 2026-05-07 11:20 | 6.54931 | 3.31309 | 1367 ft | 161 kts | 186° |
| 2026-05-07 11:20 | 6.53789 | 3.31268 | 1882 ft | 168 kts | 180° |
| 2026-05-07 11:20 | 6.52576 | 3.30994 | 2105 ft | 193 kts | 214° |
| 2026-05-07 11:20 | 6.51735 | 3.29932 | 2529 ft | 201 kts | 246° |
| 2026-05-07 11:21 | 6.51509 | 3.28520 | 2963 ft | 210 kts | 267° |
| 2026-05-07 11:21 | 6.51484 | 3.26990 | 3305 ft | 226 kts | 268° |
| 2026-05-07 11:21 | 6.51466 | 3.25395 | 3912 ft | 227 kts | 268° |
| 2026-05-07 11:21 | 6.51446 | 3.23803 | 4586 ft | 229 kts | 269° |
| 2026-05-07 11:22 | 6.51412 | 3.22178 | 5081 ft | 240 kts | 267° |
| 2026-05-07 11:22 | 6.51327 | 3.20414 | 5258 ft | 265 kts | 266° |
| 2026-05-07 11:22 | 6.51252 | 3.19032 | 5508 ft | 277 kts | 266° |
| 2026-05-07 11:22 | 6.51146 | 3.17072 | 6044 ft | 285 kts | 266° |
| 2026-05-07 11:23 | 6.51041 | 3.15061 | 6671 ft | 290 kts | 266° |
| 2026-05-07 11:23 | 6.50935 | 3.13020 | 7288 ft | 295 kts | 267° |
| 2026-05-07 11:23 | 6.50829 | 3.10930 | 7861 ft | 302 kts | 267° |
| 2026-05-07 11:23 | 6.50720 | 3.08795 | 8477 ft | 309 kts | 267° |
| 2026-05-07 11:24 | 6.50618 | 3.06609 | 9128 ft | 316 kts | 268° |
| 2026-05-07 11:24 | 6.50519 | 3.04376 | 9797 ft | 322 kts | 268° |
| 2026-05-07 11:24 | 6.50419 | 3.02099 | 10301 ft | 334 kts | 268° |
| 2026-05-07 11:24 | 6.50312 | 2.99682 | 10458 ft | 357 kts | 268° |
| 2026-05-07 11:25 | 6.50199 | 2.97145 | 10611 ft | 378 kts | 268° |
| 2026-05-07 11:25 | 6.50078 | 2.94434 | 10762 ft | 398 kts | 268° |
| 2026-05-07 11:25 | 6.49950 | 2.91599 | 11085 ft | 410 kts | 268° |
| 2026-05-07 11:25 | 6.49820 | 2.88720 | 11620 ft | 415 kts | 268° |
| 2026-05-07 11:26 | 6.49689 | 2.85812 | 12255 ft | 417 kts | 267° |
| 2026-05-07 11:26 | 6.49557 | 2.82891 | 12863 ft | 420 kts | 267° |
| 2026-05-07 11:26 | 6.49424 | 2.79949 | 13444 ft | 423 kts | 267° |
| 2026-05-07 11:26 | 6.49290 | 2.76981 | 13995 ft | 426 kts | 267° |
| 2026-05-07 11:27 | 6.48948 | 2.74020 | 14514 ft | 428 kts | 253° |
| 2026-05-07 11:27 | 6.47972 | 2.71204 | 15113 ft | 426 kts | 248° |
| 2026-05-07 11:27 | 6.46909 | 2.68416 | 15682 ft | 428 kts | 248° |
| 2026-05-07 11:27 | 6.45841 | 2.65622 | 16197 ft | 429 kts | 248° |
| 2026-05-07 11:28 | 6.44780 | 2.62804 | 16715 ft | 431 kts | 248° |
| 2026-05-07 11:28 | 6.43733 | 2.59978 | 17218 ft | 433 kts | 248° |
| 2026-05-07 11:28 | 6.42690 | 2.57131 | 17706 ft | 435 kts | 249° |
| 2026-05-07 11:28 | 6.41649 | 2.54271 | 18177 ft | 436 kts | 249° |
| 2026-05-07 11:29 | 6.40604 | 2.51397 | 18560 ft | 438 kts | 249° |
| 2026-05-07 11:29 | 6.39554 | 2.48510 | 18928 ft | 441 kts | 249° |
| 2026-05-07 11:29 | 6.38499 | 2.45611 | 19287 ft | 443 kts | 249° |
| 2026-05-07 11:29 | 6.37435 | 2.42690 | 19635 ft | 445 kts | 249° |
| 2026-05-07 11:30 | 6.36391 | 2.39758 | 19980 ft | 447 kts | 251° |
| 2026-05-07 11:30 | 6.35674 | 2.36704 | 20306 ft | 451 kts | 259° |
| 2026-05-07 11:30 | 6.35183 | 2.33587 | 20655 ft | 452 kts | 261° |
| 2026-05-07 11:30 | 6.34725 | 2.30452 | 20978 ft | 454 kts | 261° |
| 2026-05-07 11:31 | 6.34269 | 2.27306 | 21278 ft | 457 kts | 261° |
| 2026-05-07 11:31 | 6.33799 | 2.24139 | 21571 ft | 459 kts | 261° |
| 2026-05-07 11:31 | 6.33316 | 2.20965 | 21863 ft | 461 kts | 260° |
| 2026-05-07 11:31 | 6.32822 | 2.17774 | 22164 ft | 463 kts | 260° |
| 2026-05-07 11:32 | 6.31814 | 2.11361 | 22717 ft | 466 kts | 260° |
| 2026-05-07 11:32 | 6.31305 | 2.08136 | 22971 ft | 468 kts | 260° |
| 2026-05-07 11:32 | 6.30794 | 2.04900 | 23230 ft | 470 kts | 260° |
| 2026-05-07 11:33 | 6.30289 | 2.01698 | 23474 ft | 471 kts | 260° |
| 2026-05-07 11:33 | 6.29777 | 1.98444 | 23673 ft | 473 kts | 260° |
| 2026-05-07 11:33 | 6.29261 | 1.95170 | 23858 ft | 475 kts | 260° |
| 2026-05-07 11:33 | 6.28743 | 1.91884 | 24047 ft | 476 kts | 260° |
| 2026-05-07 11:34 | 6.28224 | 1.88593 | 24244 ft | 477 kts | 260° |
| 2026-05-07 11:34 | 6.27703 | 1.85292 | 24429 ft | 479 kts | 260° |
| 2026-05-07 11:34 | 6.27182 | 1.81987 | 24602 ft | 480 kts | 260° |
| 2026-05-07 11:34 | 6.26657 | 1.78663 | 24789 ft | 482 kts | 260° |
| 2026-05-07 11:35 | 6.26128 | 1.75329 | 24997 ft | 483 kts | 260° |
| 2026-05-07 11:35 | 6.25597 | 1.71990 | 25169 ft | 484 kts | 260° |
| 2026-05-07 11:35 | 6.25064 | 1.68647 | 25331 ft | 486 kts | 260° |
| 2026-05-07 11:35 | 6.24529 | 1.65293 | 25491 ft | 487 kts | 260° |
| 2026-05-07 11:36 | 6.23991 | 1.61917 | 25657 ft | 488 kts | 260° |
| 2026-05-07 11:36 | 6.23460 | 1.58589 | 25809 ft | 489 kts | 260° |
| 2026-05-07 11:36 | 6.22921 | 1.55209 | 25966 ft | 490 kts | 260° |
| 2026-05-07 11:36 | 6.22379 | 1.51809 | 26110 ft | 492 kts | 260° |
| 2026-05-07 11:37 | 6.21837 | 1.48412 | 26259 ft | 493 kts | 260° |
| 2026-05-07 11:37 | 6.21294 | 1.45010 | 26396 ft | 494 kts | 260° |
| 2026-05-07 11:37 | 6.20749 | 1.41596 | 26534 ft | 495 kts | 260° |
| 2026-05-07 11:37 | 6.20203 | 1.38180 | 26666 ft | 496 kts | 260° |
| 2026-05-07 11:38 | 6.19654 | 1.34746 | 26796 ft | 497 kts | 260° |
| 2026-05-07 11:38 | 6.19106 | 1.31313 | 26922 ft | 498 kts | 260° |
| 2026-05-07 11:38 | 6.18506 | 1.27880 | 27048 ft | 499 kts | 257° |
| 2026-05-07 11:38 | 6.17523 | 1.24534 | 27145 ft | 499 kts | 248° |
| 2026-05-07 11:39 | 6.16156 | 1.21325 | 27304 ft | 499 kts | 245° |
| 2026-05-07 11:39 | 6.14742 | 1.18181 | 27416 ft | 500 kts | 245° |
| 2026-05-07 11:39 | 6.13308 | 1.14998 | 27524 ft | 501 kts | 245° |
| 2026-05-07 11:39 | 6.11887 | 1.11789 | 27629 ft | 502 kts | 245° |
| 2026-05-07 11:40 | 6.10489 | 1.08575 | 27737 ft | 503 kts | 246° |
| 2026-05-07 11:40 | 6.09095 | 1.05337 | 27883 ft | 503 kts | 246° |
| 2026-05-07 11:40 | 6.07709 | 1.02113 | 28066 ft | 502 kts | 246° |
| 2026-05-07 11:40 | 6.06331 | 0.98897 | 28261 ft | 501 kts | 247° |
| 2026-05-07 11:41 | 6.05053 | 0.95640 | 28430 ft | 501 kts | 249° |
| 2026-05-07 11:41 | 6.03848 | 0.92349 | 28593 ft | 501 kts | 249° |
| 2026-05-07 11:41 | 6.02663 | 0.89063 | 28784 ft | 501 kts | 249° |
| 2026-05-07 11:41 | 6.01466 | 0.85785 | 28982 ft | 500 kts | 249° |
| 2026-05-07 11:42 | 6.00249 | 0.82512 | 29173 ft | 499 kts | 249° |
| 2026-05-07 11:42 | 5.99022 | 0.79246 | 29374 ft | 499 kts | 249° |
| 2026-05-07 11:42 | 5.97794 | 0.75985 | 29585 ft | 498 kts | 249° |
| 2026-05-07 11:42 | 5.96568 | 0.72724 | 29797 ft | 498 kts | 249° |
| 2026-05-07 11:43 | 5.95349 | 0.69476 | 30029 ft | 497 kts | 249° |
| 2026-05-07 11:43 | 5.94129 | 0.66224 | 30218 ft | 497 kts | 249° |
| 2026-05-07 11:43 | 5.92913 | 0.62983 | 30430 ft | 496 kts | 249° |
| 2026-05-07 11:43 | 5.91699 | 0.59746 | 30646 ft | 495 kts | 249° |
| 2026-05-07 11:44 | 5.90486 | 0.56512 | 30864 ft | 494 kts | 249° |
| 2026-05-07 11:44 | 5.89276 | 0.53288 | 31104 ft | 492 kts | 249° |
| 2026-05-07 11:44 | 5.88084 | 0.50114 | 31346 ft | 491 kts | 248° |
| 2026-05-07 11:44 | 5.86879 | 0.46906 | 31575 ft | 490 kts | 248° |
| 2026-05-07 11:45 | 5.85675 | 0.43701 | 31805 ft | 490 kts | 248° |
| 2026-05-07 11:45 | 5.84473 | 0.40502 | 32050 ft | 489 kts | 248° |
| 2026-05-07 11:45 | 5.83273 | 0.37307 | 32296 ft | 488 kts | 248° |
| 2026-05-07 11:45 | 5.82079 | 0.34130 | 32560 ft | 487 kts | 248° |
| 2026-05-07 11:46 | 5.80882 | 0.30946 | 32816 ft | 486 kts | 248° |
| 2026-05-07 11:46 | 5.79689 | 0.27773 | 33068 ft | 485 kts | 249° |
| 2026-05-07 11:46 | 5.78498 | 0.24606 | 33322 ft | 485 kts | 249° |
| 2026-05-07 11:46 | 5.77306 | 0.21436 | 33582 ft | 484 kts | 249° |
| 2026-05-07 11:47 | 5.76119 | 0.18280 | 33843 ft | 483 kts | 249° |
| 2026-05-07 11:47 | 5.74929 | 0.15119 | 33949 ft | 483 kts | 249° |
| 2026-05-07 11:47 | 5.73737 | 0.11951 | 33942 ft | 485 kts | 249° |
| 2026-05-07 11:48 | 5.71355 | 0.05621 | 33947 ft | 484 kts | 249° |
| 2026-05-07 11:48 | 5.68971 | -0.00710 | 33943 ft | 485 kts | 249° |
| 2026-05-07 11:49 | 5.66586 | -0.07044 | 33938 ft | 484 kts | 249° |
| 2026-05-07 11:49 | 5.64223 | -0.13326 | 33938 ft | 484 kts | 250° |
| 2026-05-07 11:50 | 5.62830 | -0.19915 | 33950 ft | 483 kts | 264° |
| 2026-05-07 11:50 | 5.62255 | -0.26630 | 33942 ft | 483 kts | 265° |
| 2026-05-07 11:51 | 5.61695 | -0.33351 | 33943 ft | 483 kts | 265° |
| 2026-05-07 11:51 | 5.61084 | -0.40063 | 33943 ft | 482 kts | 264° |
| 2026-05-07 11:52 | 5.60449 | -0.46773 | 33950 ft | 482 kts | 264° |
| 2026-05-07 11:52 | 5.59810 | -0.53472 | 33947 ft | 482 kts | 264° |
| 2026-05-07 11:53 | 5.59172 | -0.60167 | 33956 ft | 482 kts | 264° |
| 2026-05-07 11:53 | 5.58536 | -0.66863 | 33949 ft | 482 kts | 264° |
| 2026-05-07 11:54 | 5.57898 | -0.73562 | 33951 ft | 482 kts | 264° |
| 2026-05-07 11:54 | 5.57261 | -0.80251 | 33952 ft | 482 kts | 264° |
| 2026-05-07 11:55 | 5.56622 | -0.86950 | 33950 ft | 482 kts | 264° |
| 2026-05-07 11:55 | 5.55982 | -0.93652 | 33950 ft | 482 kts | 264° |
| 2026-05-07 11:56 | 5.55770 | -0.95869 | 33950 ft | 482 kts | 264° |